Humberto de Campos, Brazil
Current Conditions -  °F | °C
As of 4:00 AM on Sunday 26 Oct 2014 (Local Time) from SBSL Reporting Station
Few Clouds Few Clouds  
Wind Chill: 79°   Ceiling: Unl
Heat Index: 81°   Visibility: 6mi
Dew Point: 70°   Wind: 10mph
Humidity: 74%   Direction: 70°ENE
Pressure: 29.77"   Gusts: NA
Location:  2.6°S, 43.46°W
Report Text: SBSL 260700Z 07009KT 9999 FEW017 26/21 Q1008
Loading
Personal Weather Stations






























Interactive Weather Map
Tropical Storm Tracking
New forecast layout! Learn more

10-Day Weather Forecast

Advertisements
Track Severe Weather on mobile